sensor_id;sensor_type;location;lat;lon;timestamp;P1;durP1;ratioP1;P2;durP2;ratioP2
43676;SDS011;29275;48.800;18.102;2023-04-24T00:02:39;4.95;;;2.63;;
43676;SDS011;29275;48.800;18.102;2023-04-24T00:05:42;3.22;;;2.22;;
43676;SDS011;29275;48.800;18.102;2023-04-24T00:08:45;5.95;;;3.13;;
43676;SDS011;29275;48.800;18.102;2023-04-24T00:11:48;4.00;;;2.90;;
43676;SDS011;29275;48.800;18.102;2023-04-24T00:14:50;6.57;;;3.55;;
43676;SDS011;29275;48.800;18.102;2023-04-24T00:17:53;12.90;;;6.93;;
43676;SDS011;29275;48.800;18.102;2023-04-24T00:20:56;6.20;;;3.78;;
43676;SDS011;29275;48.800;18.102;2023-04-24T00:23:59;5.63;;;3.00;;
43676;SDS011;29275;48.800;18.102;2023-04-24T00:27:02;5.50;;;3.67;;
43676;SDS011;29275;48.800;18.102;2023-04-24T00:30:05;8.27;;;4.07;;
43676;SDS011;29275;48.800;18.102;2023-04-24T00:33:08;7.28;;;4.30;;
43676;SDS011;29275;48.800;18.102;2023-04-24T00:36:11;5.63;;;3.08;;
43676;SDS011;29275;48.800;18.102;2023-04-24T00:39:14;4.93;;;3.13;;
43676;SDS011;29275;48.800;18.102;2023-04-24T00:42:17;5.18;;;3.42;;
43676;SDS011;29275;48.800;18.102;2023-04-24T00:45:21;5.22;;;2.92;;
43676;SDS011;29275;48.800;18.102;2023-04-24T00:48:23;4.95;;;3.00;;
43676;SDS011;29275;48.800;18.102;2023-04-24T00:51:27;4.15;;;3.08;;
43676;SDS011;29275;48.800;18.102;2023-04-24T00:54:30;4.97;;;3.30;;
43676;SDS011;29275;48.800;18.102;2023-04-24T00:57:33;6.45;;;3.15;;
43676;SDS011;29275;48.800;18.102;2023-04-24T01:00:35;7.25;;;3.28;;
43676;SDS011;29275;48.800;18.102;2023-04-24T01:03:38;6.00;;;2.95;;
43676;SDS011;29275;48.800;18.102;2023-04-24T01:06:43;7.10;;;4.55;;
43676;SDS011;29275;48.800;18.102;2023-04-24T01:09:47;6.07;;;4.30;;
43676;SDS011;29275;48.800;18.102;2023-04-24T01:12:52;8.27;;;4.28;;
43676;SDS011;29275;48.800;18.102;2023-04-24T01:15:55;7.95;;;5.30;;
43676;SDS011;29275;48.800;18.102;2023-04-24T01:18:58;8.48;;;4.50;;
43676;SDS011;29275;48.800;18.102;2023-04-24T01:22:01;7.80;;;4.40;;
43676;SDS011;29275;48.800;18.102;2023-04-24T01:25:05;5.70;;;3.78;;
43676;SDS011;29275;48.800;18.102;2023-04-24T01:28:08;7.28;;;4.03;;
43676;SDS011;29275;48.800;18.102;2023-04-24T01:31:13;6.30;;;4.45;;
43676;SDS011;29275;48.800;18.102;2023-04-24T01:34:16;5.57;;;3.88;;
43676;SDS011;29275;48.800;18.102;2023-04-24T01:37:19;7.50;;;3.28;;
43676;SDS011;29275;48.800;18.102;2023-04-24T01:40:23;6.00;;;3.10;;
43676;SDS011;29275;48.800;18.102;2023-04-24T01:43:26;4.13;;;2.72;;
43676;SDS011;29275;48.800;18.102;2023-04-24T01:46:32;5.35;;;3.22;;
43676;SDS011;29275;48.800;18.102;2023-04-24T01:49:38;4.27;;;2.60;;
43676;SDS011;29275;48.800;18.102;2023-04-24T01:52:42;5.32;;;3.17;;
43676;SDS011;29275;48.800;18.102;2023-04-24T01:55:44;7.13;;;3.35;;
43676;SDS011;29275;48.800;18.102;2023-04-24T01:58:48;8.15;;;4.95;;
43676;SDS011;29275;48.800;18.102;2023-04-24T02:01:53;6.47;;;4.70;;
43676;SDS011;29275;48.800;18.102;2023-04-24T02:04:56;6.97;;;4.60;;
43676;SDS011;29275;48.800;18.102;2023-04-24T02:08:01;7.80;;;4.40;;
43676;SDS011;29275;48.800;18.102;2023-04-24T02:11:04;4.97;;;3.65;;
43676;SDS011;29275;48.800;18.102;2023-04-24T02:14:08;5.75;;;3.42;;
43676;SDS011;29275;48.800;18.102;2023-04-24T02:17:10;5.57;;;4.10;;
43676;SDS011;29275;48.800;18.102;2023-04-24T02:20:14;5.88;;;3.53;;
43676;SDS011;29275;48.800;18.102;2023-04-24T02:23:17;4.78;;;3.17;;
43676;SDS011;29275;48.800;18.102;2023-04-24T02:26:20;4.20;;;3.17;;
43676;SDS011;29275;48.800;18.102;2023-04-24T02:29:26;6.70;;;3.80;;
43676;SDS011;29275;48.800;18.102;2023-04-24T02:32:29;6.57;;;3.92;;
43676;SDS011;29275;48.800;18.102;2023-04-24T02:35:33;6.25;;;3.80;;
43676;SDS011;29275;48.800;18.102;2023-04-24T02:38:36;4.72;;;3.53;;
43676;SDS011;29275;48.800;18.102;2023-04-24T02:41:40;7.75;;;3.58;;
43676;SDS011;29275;48.800;18.102;2023-04-24T02:44:43;5.20;;;3.55;;
43676;SDS011;29275;48.800;18.102;2023-04-24T02:47:46;4.53;;;3.42;;
43676;SDS011;29275;48.800;18.102;2023-04-24T02:50:49;4.13;;;3.30;;
43676;SDS011;29275;48.800;18.102;2023-04-24T02:53:52;4.93;;;3.78;;
43676;SDS011;29275;48.800;18.102;2023-04-24T02:56:55;4.65;;;3.90;;
43676;SDS011;29275;48.800;18.102;2023-04-24T02:59:59;8.32;;;4.00;;
43676;SDS011;29275;48.800;18.102;2023-04-24T03:03:02;6.70;;;3.97;;
43676;SDS011;29275;48.800;18.102;2023-04-24T03:06:05;5.53;;;4.07;;
43676;SDS011;29275;48.800;18.102;2023-04-24T03:09:08;4.78;;;3.90;;
43676;SDS011;29275;48.800;18.102;2023-04-24T03:12:11;8.13;;;4.93;;
43676;SDS011;29275;48.800;18.102;2023-04-24T03:15:14;7.80;;;3.75;;
43676;SDS011;29275;48.800;18.102;2023-04-24T03:18:17;7.45;;;4.50;;
43676;SDS011;29275;48.800;18.102;2023-04-24T03:21:22;6.72;;;4.22;;
43676;SDS011;29275;48.800;18.102;2023-04-24T03:24:25;5.25;;;3.85;;
43676;SDS011;29275;48.800;18.102;2023-04-24T03:27:30;7.38;;;4.60;;
43676;SDS011;29275;48.800;18.102;2023-04-24T03:30:40;5.28;;;3.60;;
43676;SDS011;29275;48.800;18.102;2023-04-24T03:33:44;5.93;;;3.95;;
43676;SDS011;29275;48.800;18.102;2023-04-24T03:36:47;7.15;;;3.97;;
43676;SDS011;29275;48.800;18.102;2023-04-24T03:39:51;7.65;;;3.78;;
43676;SDS011;29275;48.800;18.102;2023-04-24T03:42:58;6.47;;;3.78;;
43676;SDS011;29275;48.800;18.102;2023-04-24T03:46:02;6.47;;;4.20;;
43676;SDS011;29275;48.800;18.102;2023-04-24T03:49:08;6.55;;;4.20;;
43676;SDS011;29275;48.800;18.102;2023-04-24T03:52:16;6.90;;;4.35;;
43676;SDS011;29275;48.800;18.102;2023-04-24T03:55:19;5.97;;;4.43;;
43676;SDS011;29275;48.800;18.102;2023-04-24T03:58:23;5.32;;;4.20;;
43676;SDS011;29275;48.800;18.102;2023-04-24T04:01:26;6.13;;;4.65;;
43676;SDS011;29275;48.800;18.102;2023-04-24T04:04:38;5.50;;;3.85;;
43676;SDS011;29275;48.800;18.102;2023-04-24T04:07:41;8.20;;;4.50;;
43676;SDS011;29275;48.800;18.102;2023-04-24T04:10:44;5.22;;;3.95;;
43676;SDS011;29275;48.800;18.102;2023-04-24T04:13:47;6.15;;;4.25;;
43676;SDS011;29275;48.800;18.102;2023-04-24T04:16:53;5.13;;;4.30;;
43676;SDS011;29275;48.800;18.102;2023-04-24T04:19:57;6.70;;;4.53;;
43676;SDS011;29275;48.800;18.102;2023-04-24T04:23:00;7.53;;;4.15;;
43676;SDS011;29275;48.800;18.102;2023-04-24T04:26:15;5.63;;;4.00;;
43676;SDS011;29275;48.800;18.102;2023-04-24T04:29:38;6.32;;;4.50;;
43676;SDS011;29275;48.800;18.102;2023-04-24T04:32:45;10.48;;;4.35;;
43676;SDS011;29275;48.800;18.102;2023-04-24T04:35:48;4.95;;;3.70;;
43676;SDS011;29275;48.800;18.102;2023-04-24T04:38:52;3.65;;;3.17;;
43676;SDS011;29275;48.800;18.102;2023-04-24T04:42:15;6.10;;;4.18;;
43676;SDS011;29275;48.800;18.102;2023-04-24T04:45:19;4.53;;;3.38;;
43676;SDS011;29275;48.800;18.102;2023-04-24T04:48:42;5.13;;;3.40;;
43676;SDS011;29275;48.800;18.102;2023-04-24T04:51:46;6.78;;;4.88;;
43676;SDS011;29275;48.800;18.102;2023-04-24T04:54:50;5.38;;;3.70;;
43676;SDS011;29275;48.800;18.102;2023-04-24T04:57:53;6.78;;;4.22;;
43676;SDS011;29275;48.800;18.102;2023-04-24T05:00:58;6.55;;;4.25;;
43676;SDS011;29275;48.800;18.102;2023-04-24T05:04:06;4.38;;;3.47;;
43676;SDS011;29275;48.800;18.102;2023-04-24T05:07:09;7.90;;;3.60;;
43676;SDS011;29275;48.800;18.102;2023-04-24T05:10:15;5.07;;;3.38;;
43676;SDS011;29275;48.800;18.102;2023-04-24T05:13:17;7.28;;;3.85;;
43676;SDS011;29275;48.800;18.102;2023-04-24T05:16:40;8.13;;;3.75;;
43676;SDS011;29275;48.800;18.102;2023-04-24T05:19:44;7.53;;;3.88;;
43676;SDS011;29275;48.800;18.102;2023-04-24T05:22:50;17.80;;;4.15;;
43676;SDS011;29275;48.800;18.102;2023-04-24T05:25:55;11.10;;;3.97;;
43676;SDS011;29275;48.800;18.102;2023-04-24T05:28:58;6.18;;;3.90;;
43676;SDS011;29275;48.800;18.102;2023-04-24T05:32:01;8.05;;;3.60;;
43676;SDS011;29275;48.800;18.102;2023-04-24T05:35:05;5.63;;;4.22;;
43676;SDS011;29275;48.800;18.102;2023-04-24T05:38:10;5.68;;;4.43;;
43676;SDS011;29275;48.800;18.102;2023-04-24T05:41:13;10.25;;;4.45;;
43676;SDS011;29275;48.800;18.102;2023-04-24T05:44:17;4.60;;;3.97;;
43676;SDS011;29275;48.800;18.102;2023-04-24T05:47:20;5.65;;;3.60;;
43676;SDS011;29275;48.800;18.102;2023-04-24T05:50:25;4.68;;;3.75;;
43676;SDS011;29275;48.800;18.102;2023-04-24T05:53:29;6.90;;;3.53;;
43676;SDS011;29275;48.800;18.102;2023-04-24T05:56:32;4.70;;;3.83;;
43676;SDS011;29275;48.800;18.102;2023-04-24T05:59:37;5.85;;;3.13;;
43676;SDS011;29275;48.800;18.102;2023-04-24T06:02:45;8.82;;;3.75;;
43676;SDS011;29275;48.800;18.102;2023-04-24T06:05:49;7.43;;;4.05;;
43676;SDS011;29275;48.800;18.102;2023-04-24T06:08:55;6.03;;;4.10;;
43676;SDS011;29275;48.800;18.102;2023-04-24T06:12:00;5.80;;;3.85;;
43676;SDS011;29275;48.800;18.102;2023-04-24T06:15:14;5.85;;;3.97;;
43676;SDS011;29275;48.800;18.102;2023-04-24T06:18:46;6.90;;;4.35;;
43676;SDS011;29275;48.800;18.102;2023-04-24T06:21:50;5.00;;;3.65;;
43676;SDS011;29275;48.800;18.102;2023-04-24T06:24:53;7.70;;;4.47;;
43676;SDS011;29275;48.800;18.102;2023-04-24T06:27:56;6.95;;;4.15;;
43676;SDS011;29275;48.800;18.102;2023-04-24T06:30:59;5.88;;;3.70;;
43676;SDS011;29275;48.800;18.102;2023-04-24T06:34:04;6.82;;;4.07;;
43676;SDS011;29275;48.800;18.102;2023-04-24T06:37:07;9.02;;;4.28;;
43676;SDS011;29275;48.800;18.102;2023-04-24T06:40:10;6.15;;;3.88;;
43676;SDS011;29275;48.800;18.102;2023-04-24T06:43:13;8.13;;;4.28;;
43676;SDS011;29275;48.800;18.102;2023-04-24T06:46:19;5.78;;;3.72;;
43676;SDS011;29275;48.800;18.102;2023-04-24T06:49:24;4.55;;;3.85;;
43676;SDS011;29275;48.800;18.102;2023-04-24T06:52:27;6.70;;;4.22;;
43676;SDS011;29275;48.800;18.102;2023-04-24T06:55:29;6.75;;;4.20;;
43676;SDS011;29275;48.800;18.102;2023-04-24T06:58:33;7.55;;;4.43;;
43676;SDS011;29275;48.800;18.102;2023-04-24T07:01:36;6.10;;;4.13;;
43676;SDS011;29275;48.800;18.102;2023-04-24T07:04:39;6.85;;;4.00;;
43676;SDS011;29275;48.800;18.102;2023-04-24T07:07:42;6.97;;;4.22;;
43676;SDS011;29275;48.800;18.102;2023-04-24T07:10:45;6.60;;;3.97;;
43676;SDS011;29275;48.800;18.102;2023-04-24T07:13:48;8.18;;;4.90;;
43676;SDS011;29275;48.800;18.102;2023-04-24T07:16:51;12.05;;;4.82;;
43676;SDS011;29275;48.800;18.102;2023-04-24T07:19:54;4.93;;;4.10;;
43676;SDS011;29275;48.800;18.102;2023-04-24T07:22:57;7.53;;;4.30;;
43676;SDS011;29275;48.800;18.102;2023-04-24T07:25:59;5.00;;;4.13;;
43676;SDS011;29275;48.800;18.102;2023-04-24T07:29:02;9.02;;;4.90;;
43676;SDS011;29275;48.800;18.102;2023-04-24T07:32:05;6.72;;;3.78;;
43676;SDS011;29275;48.800;18.102;2023-04-24T07:35:08;7.80;;;4.57;;
43676;SDS011;29275;48.800;18.102;2023-04-24T07:38:12;6.20;;;4.43;;
43676;SDS011;29275;48.800;18.102;2023-04-24T07:41:15;5.30;;;3.88;;
43676;SDS011;29275;48.800;18.102;2023-04-24T07:44:17;6.47;;;4.47;;
43676;SDS011;29275;48.800;18.102;2023-04-24T07:47:20;10.85;;;5.18;;
43676;SDS011;29275;48.800;18.102;2023-04-24T07:50:23;7.10;;;4.65;;
43676;SDS011;29275;48.800;18.102;2023-04-24T07:53:26;5.00;;;4.22;;
43676;SDS011;29275;48.800;18.102;2023-04-24T07:56:29;5.45;;;4.10;;
43676;SDS011;29275;48.800;18.102;2023-04-24T07:59:33;8.68;;;4.10;;
43676;SDS011;29275;48.800;18.102;2023-04-24T08:02:37;6.05;;;3.90;;
43676;SDS011;29275;48.800;18.102;2023-04-24T08:05:40;7.38;;;4.00;;
43676;SDS011;29275;48.800;18.102;2023-04-24T08:08:44;6.35;;;3.85;;
43676;SDS011;29275;48.800;18.102;2023-04-24T08:11:47;10.27;;;4.22;;
43676;SDS011;29275;48.800;18.102;2023-04-24T08:14:50;5.47;;;4.00;;
43676;SDS011;29275;48.800;18.102;2023-04-24T08:17:52;5.18;;;3.88;;
43676;SDS011;29275;48.800;18.102;2023-04-24T08:20:57;6.25;;;4.00;;
43676;SDS011;29275;48.800;18.102;2023-04-24T08:24:03;6.18;;;3.85;;
43676;SDS011;29275;48.800;18.102;2023-04-24T08:27:09;7.90;;;4.07;;
43676;SDS011;29275;48.800;18.102;2023-04-24T08:30:12;5.93;;;4.05;;
43676;SDS011;29275;48.800;18.102;2023-04-24T08:33:15;5.57;;;4.05;;
43676;SDS011;29275;48.800;18.102;2023-04-24T08:36:18;6.25;;;3.95;;
43676;SDS011;29275;48.800;18.102;2023-04-24T08:39:21;4.95;;;3.85;;
43676;SDS011;29275;48.800;18.102;2023-04-24T08:42:24;5.88;;;3.72;;
43676;SDS011;29275;48.800;18.102;2023-04-24T08:45:27;5.68;;;3.95;;
43676;SDS011;29275;48.800;18.102;2023-04-24T08:48:30;8.02;;;4.43;;
43676;SDS011;29275;48.800;18.102;2023-04-24T08:51:34;5.78;;;4.05;;
43676;SDS011;29275;48.800;18.102;2023-04-24T08:54:40;8.85;;;4.50;;
43676;SDS011;29275;48.800;18.102;2023-04-24T08:57:48;5.90;;;4.00;;
43676;SDS011;29275;48.800;18.102;2023-04-24T09:00:57;6.35;;;3.80;;
43676;SDS011;29275;48.800;18.102;2023-04-24T09:04:02;5.45;;;4.07;;
43676;SDS011;29275;48.800;18.102;2023-04-24T09:07:06;6.67;;;4.50;;
43676;SDS011;29275;48.800;18.102;2023-04-24T09:10:10;7.97;;;4.25;;
43676;SDS011;29275;48.800;18.102;2023-04-24T09:13:14;5.30;;;4.50;;
43676;SDS011;29275;48.800;18.102;2023-04-24T09:16:17;8.13;;;4.18;;
43676;SDS011;29275;48.800;18.102;2023-04-24T09:19:21;5.35;;;3.75;;
43676;SDS011;29275;48.800;18.102;2023-04-24T09:22:24;7.50;;;3.75;;
43676;SDS011;29275;48.800;18.102;2023-04-24T09:25:31;7.97;;;4.63;;
43676;SDS011;29275;48.800;18.102;2023-04-24T09:28:36;6.10;;;4.78;;
43676;SDS011;29275;48.800;18.102;2023-04-24T09:31:41;7.43;;;4.10;;
43676;SDS011;29275;48.800;18.102;2023-04-24T09:34:44;7.30;;;4.38;;
43676;SDS011;29275;48.800;18.102;2023-04-24T09:37:49;6.50;;;4.55;;
43676;SDS011;29275;48.800;18.102;2023-04-24T09:40:52;7.95;;;4.15;;
43676;SDS011;29275;48.800;18.102;2023-04-24T09:43:55;5.13;;;3.80;;
43676;SDS011;29275;48.800;18.102;2023-04-24T09:46:59;6.25;;;3.80;;
43676;SDS011;29275;48.800;18.102;2023-04-24T09:50:09;5.85;;;3.95;;
43676;SDS011;29275;48.800;18.102;2023-04-24T09:53:17;5.72;;;4.10;;
43676;SDS011;29275;48.800;18.102;2023-04-24T09:56:27;6.97;;;3.97;;
43676;SDS011;29275;48.800;18.102;2023-04-24T09:59:39;19.63;;;5.40;;
43676;SDS011;29275;48.800;18.102;2023-04-24T10:02:45;6.97;;;4.18;;
43676;SDS011;29275;48.800;18.102;2023-04-24T10:08:55;7.35;;;4.03;;
43676;SDS011;29275;48.800;18.102;2023-04-24T10:11:58;6.72;;;4.25;;
43676;SDS011;29275;48.800;18.102;2023-04-24T10:15:02;7.22;;;4.25;;
43676;SDS011;29275;48.800;18.102;2023-04-24T10:18:05;5.82;;;4.38;;
43676;SDS011;29275;48.800;18.102;2023-04-24T10:21:09;5.95;;;3.92;;
43676;SDS011;29275;48.800;18.102;2023-04-24T10:24:13;4.45;;;3.67;;
43676;SDS011;29275;48.800;18.102;2023-04-24T10:27:16;6.20;;;3.85;;
43676;SDS011;29275;48.800;18.102;2023-04-24T10:30:20;5.68;;;4.22;;
43676;SDS011;29275;48.800;18.102;2023-04-24T10:33:23;8.70;;;4.78;;
43676;SDS011;29275;48.800;18.102;2023-04-24T10:36:29;5.77;;;3.80;;
43676;SDS011;29275;48.800;18.102;2023-04-24T10:39:34;7.70;;;3.83;;
43676;SDS011;29275;48.800;18.102;2023-04-24T10:42:40;6.57;;;4.47;;
43676;SDS011;29275;48.800;18.102;2023-04-24T10:45:59;7.40;;;4.13;;
43676;SDS011;29275;48.800;18.102;2023-04-24T10:49:06;5.72;;;3.72;;
43676;SDS011;29275;48.800;18.102;2023-04-24T10:52:10;6.22;;;4.05;;
43676;SDS011;29275;48.800;18.102;2023-04-24T10:55:14;7.32;;;4.68;;
43676;SDS011;29275;48.800;18.102;2023-04-24T10:58:24;8.55;;;4.90;;
43676;SDS011;29275;48.800;18.102;2023-04-24T11:01:40;7.50;;;3.83;;
43676;SDS011;29275;48.800;18.102;2023-04-24T11:04:58;6.47;;;4.38;;
43676;SDS011;29275;48.800;18.102;2023-04-24T11:08:10;5.72;;;4.03;;
43676;SDS011;29275;48.800;18.102;2023-04-24T11:11:17;6.75;;;4.50;;
43676;SDS011;29275;48.800;18.102;2023-04-24T11:14:23;6.72;;;4.13;;
43676;SDS011;29275;48.800;18.102;2023-04-24T11:17:30;8.02;;;4.25;;
43676;SDS011;29275;48.800;18.102;2023-04-24T11:20:34;6.95;;;4.13;;
43676;SDS011;29275;48.800;18.102;2023-04-24T11:23:37;4.40;;;3.95;;
43676;SDS011;29275;48.800;18.102;2023-04-24T11:26:40;5.70;;;4.32;;
43676;SDS011;29275;48.800;18.102;2023-04-24T11:32:52;5.65;;;4.00;;
43676;SDS011;29275;48.800;18.102;2023-04-24T11:35:55;5.43;;;4.47;;
43676;SDS011;29275;48.800;18.102;2023-04-24T11:38:58;10.32;;;4.60;;
43676;SDS011;29275;48.800;18.102;2023-04-24T11:42:02;7.28;;;4.32;;
43676;SDS011;29275;48.800;18.102;2023-04-24T11:45:09;6.85;;;4.22;;
43676;SDS011;29275;48.800;18.102;2023-04-24T11:48:21;6.20;;;4.55;;
43676;SDS011;29275;48.800;18.102;2023-04-24T11:51:26;30.33;;;6.72;;
43676;SDS011;29275;48.800;18.102;2023-04-24T11:54:37;7.00;;;4.50;;
43676;SDS011;29275;48.800;18.102;2023-04-24T11:57:43;9.07;;;4.53;;
43676;SDS011;29275;48.800;18.102;2023-04-24T12:00:55;5.45;;;3.97;;
43676;SDS011;29275;48.800;18.102;2023-04-24T12:03:59;6.72;;;3.90;;
43676;SDS011;29275;48.800;18.102;2023-04-24T12:07:05;8.27;;;4.50;;
43676;SDS011;29275;48.800;18.102;2023-04-24T12:10:10;11.30;;;4.30;;
43676;SDS011;29275;48.800;18.102;2023-04-24T12:13:13;7.18;;;4.60;;
43676;SDS011;29275;48.800;18.102;2023-04-24T12:16:16;6.43;;;3.85;;
43676;SDS011;29275;48.800;18.102;2023-04-24T12:19:23;5.85;;;4.72;;
43676;SDS011;29275;48.800;18.102;2023-04-24T12:22:26;15.35;;;7.70;;
43676;SDS011;29275;48.800;18.102;2023-04-24T12:25:30;15.10;;;7.50;;
43676;SDS011;29275;48.800;18.102;2023-04-24T12:28:35;19.90;;;8.93;;
43676;SDS011;29275;48.800;18.102;2023-04-24T12:31:39;8.95;;;5.63;;
43676;SDS011;29275;48.800;18.102;2023-04-24T12:34:43;9.05;;;4.50;;
43676;SDS011;29275;48.800;18.102;2023-04-24T12:37:46;12.02;;;6.85;;
43676;SDS011;29275;48.800;18.102;2023-04-24T12:41:00;9.23;;;6.15;;
43676;SDS011;29275;48.800;18.102;2023-04-24T12:44:10;10.75;;;5.60;;
43676;SDS011;29275;48.800;18.102;2023-04-24T12:47:13;9.43;;;5.82;;
43676;SDS011;29275;48.800;18.102;2023-04-24T12:50:17;8.60;;;5.75;;
43676;SDS011;29275;48.800;18.102;2023-04-24T12:53:20;9.23;;;5.82;;
43676;SDS011;29275;48.800;18.102;2023-04-24T12:56:23;11.45;;;6.72;;
43676;SDS011;29275;48.800;18.102;2023-04-24T12:59:26;9.52;;;6.00;;
43676;SDS011;29275;48.800;18.102;2023-04-24T13:02:30;8.15;;;5.63;;
43676;SDS011;29275;48.800;18.102;2023-04-24T13:05:33;9.20;;;6.30;;
43676;SDS011;29275;48.800;18.102;2023-04-24T13:08:37;7.82;;;5.30;;
43676;SDS011;29275;48.800;18.102;2023-04-24T13:11:42;10.38;;;5.88;;
43676;SDS011;29275;48.800;18.102;2023-04-24T13:14:45;7.55;;;5.75;;
43676;SDS011;29275;48.800;18.102;2023-04-24T13:17:48;9.05;;;6.63;;
43676;SDS011;29275;48.800;18.102;2023-04-24T13:20:52;19.63;;;6.50;;
43676;SDS011;29275;48.800;18.102;2023-04-24T13:23:57;9.75;;;5.55;;
43676;SDS011;29275;48.800;18.102;2023-04-24T13:27:00;6.10;;;4.70;;
43676;SDS011;29275;48.800;18.102;2023-04-24T13:30:03;14.63;;;9.68;;
43676;SDS011;29275;48.800;18.102;2023-04-24T13:33:07;9.85;;;6.60;;
43676;SDS011;29275;48.800;18.102;2023-04-24T13:36:10;9.40;;;6.15;;
43676;SDS011;29275;48.800;18.102;2023-04-24T13:39:12;8.15;;;5.88;;
43676;SDS011;29275;48.800;18.102;2023-04-24T13:42:15;8.57;;;6.10;;
43676;SDS011;29275;48.800;18.102;2023-04-24T13:45:18;8.85;;;6.05;;
43676;SDS011;29275;48.800;18.102;2023-04-24T13:48:26;9.13;;;7.43;;
43676;SDS011;29275;48.800;18.102;2023-04-24T13:51:29;8.60;;;6.68;;
43676;SDS011;29275;48.800;18.102;2023-04-24T13:54:34;11.68;;;9.05;;
43676;SDS011;29275;48.800;18.102;2023-04-24T13:57:37;10.48;;;7.82;;
43676;SDS011;29275;48.800;18.102;2023-04-24T14:00:40;7.45;;;6.22;;
43676;SDS011;29275;48.800;18.102;2023-04-24T14:03:43;12.07;;;8.18;;
43676;SDS011;29275;48.800;18.102;2023-04-24T14:06:46;9.63;;;7.00;;
43676;SDS011;29275;48.800;18.102;2023-04-24T14:09:49;10.82;;;7.38;;
43676;SDS011;29275;48.800;18.102;2023-04-24T14:12:52;16.05;;;8.55;;
43676;SDS011;29275;48.800;18.102;2023-04-24T14:15:55;9.48;;;7.63;;
43676;SDS011;29275;48.800;18.102;2023-04-24T14:18:58;8.82;;;6.93;;
43676;SDS011;29275;48.800;18.102;2023-04-24T14:22:01;8.05;;;6.47;;
43676;SDS011;29275;48.800;18.102;2023-04-24T14:25:04;10.65;;;7.88;;
43676;SDS011;29275;48.800;18.102;2023-04-24T14:28:08;11.50;;;7.75;;
43676;SDS011;29275;48.800;18.102;2023-04-24T14:31:11;44.08;;;16.73;;
43676;SDS011;29275;48.800;18.102;2023-04-24T14:34:14;11.68;;;8.23;;
43676;SDS011;29275;48.800;18.102;2023-04-24T14:37:17;15.35;;;8.93;;
43676;SDS011;29275;48.800;18.102;2023-04-24T14:40:20;13.63;;;9.05;;
43676;SDS011;29275;48.800;18.102;2023-04-24T14:43:43;10.10;;;7.63;;
43676;SDS011;29275;48.800;18.102;2023-04-24T14:46:47;14.40;;;9.10;;
43676;SDS011;29275;48.800;18.102;2023-04-24T14:49:51;10.52;;;7.05;;
43676;SDS011;29275;48.800;18.102;2023-04-24T14:52:54;13.13;;;8.85;;
43676;SDS011;29275;48.800;18.102;2023-04-24T14:55:59;15.27;;;9.70;;
43676;SDS011;29275;48.800;18.102;2023-04-24T14:59:02;11.95;;;9.13;;
43676;SDS011;29275;48.800;18.102;2023-04-24T15:02:06;12.55;;;9.13;;
43676;SDS011;29275;48.800;18.102;2023-04-24T15:05:17;15.05;;;11.45;;
43676;SDS011;29275;48.800;18.102;2023-04-24T15:08:20;14.13;;;11.57;;
43676;SDS011;29275;48.800;18.102;2023-04-24T15:11:23;16.85;;;11.15;;
43676;SDS011;29275;48.800;18.102;2023-04-24T15:14:26;20.10;;;12.80;;
43676;SDS011;29275;48.800;18.102;2023-04-24T15:17:29;18.65;;;11.80;;
43676;SDS011;29275;48.800;18.102;2023-04-24T15:20:33;16.30;;;11.85;;
43676;SDS011;29275;48.800;18.102;2023-04-24T15:23:41;13.65;;;9.85;;
43676;SDS011;29275;48.800;18.102;2023-04-24T15:26:44;14.65;;;11.07;;
43676;SDS011;29275;48.800;18.102;2023-04-24T15:29:47;15.38;;;11.90;;
43676;SDS011;29275;48.800;18.102;2023-04-24T15:32:50;15.48;;;11.88;;
43676;SDS011;29275;48.800;18.102;2023-04-24T15:35:53;20.42;;;13.07;;
43676;SDS011;29275;48.800;18.102;2023-04-24T15:38:56;26.13;;;18.67;;
43676;SDS011;29275;48.800;18.102;2023-04-24T15:42:01;28.13;;;20.02;;
43676;SDS011;29275;48.800;18.102;2023-04-24T15:45:04;18.77;;;14.20;;
43676;SDS011;29275;48.800;18.102;2023-04-24T15:48:07;14.30;;;11.18;;
43676;SDS011;29275;48.800;18.102;2023-04-24T15:51:11;19.20;;;12.82;;
43676;SDS011;29275;48.800;18.102;2023-04-24T15:54:13;17.80;;;13.98;;
43676;SDS011;29275;48.800;18.102;2023-04-24T15:57:16;14.15;;;10.68;;
43676;SDS011;29275;48.800;18.102;2023-04-24T16:00:19;17.75;;;12.88;;
43676;SDS011;29275;48.800;18.102;2023-04-24T16:03:25;13.30;;;9.77;;
43676;SDS011;29275;48.800;18.102;2023-04-24T16:06:29;14.55;;;10.10;;
43676;SDS011;29275;48.800;18.102;2023-04-24T16:09:33;24.90;;;15.48;;
43676;SDS011;29275;48.800;18.102;2023-04-24T16:12:36;23.98;;;17.35;;
43676;SDS011;29275;48.800;18.102;2023-04-24T16:15:39;21.58;;;14.90;;
43676;SDS011;29275;48.800;18.102;2023-04-24T16:18:43;22.10;;;14.13;;
43676;SDS011;29275;48.800;18.102;2023-04-24T16:21:45;15.35;;;11.45;;
43676;SDS011;29275;48.800;18.102;2023-04-24T16:24:48;15.15;;;10.55;;
43676;SDS011;29275;48.800;18.102;2023-04-24T16:27:52;16.42;;;12.82;;
43676;SDS011;29275;48.800;18.102;2023-04-24T16:30:54;19.65;;;14.32;;
43676;SDS011;29275;48.800;18.102;2023-04-24T16:33:58;29.50;;;21.83;;
43676;SDS011;29275;48.800;18.102;2023-04-24T16:37:01;24.90;;;17.15;;
43676;SDS011;29275;48.800;18.102;2023-04-24T16:40:04;18.05;;;14.85;;
43676;SDS011;29275;48.800;18.102;2023-04-24T16:43:12;18.25;;;13.75;;
43676;SDS011;29275;48.800;18.102;2023-04-24T16:46:15;19.27;;;12.82;;
43676;SDS011;29275;48.800;18.102;2023-04-24T16:49:18;17.02;;;12.77;;
43676;SDS011;29275;48.800;18.102;2023-04-24T16:52:21;19.50;;;13.43;;
43676;SDS011;29275;48.800;18.102;2023-04-24T16:55:24;18.60;;;13.82;;
43676;SDS011;29275;48.800;18.102;2023-04-24T16:58:30;17.00;;;13.15;;
43676;SDS011;29275;48.800;18.102;2023-04-24T17:01:34;19.00;;;12.75;;
43676;SDS011;29275;48.800;18.102;2023-04-24T17:04:36;15.70;;;11.02;;
43676;SDS011;29275;48.800;18.102;2023-04-24T17:07:39;13.65;;;10.57;;
43676;SDS011;29275;48.800;18.102;2023-04-24T17:10:43;11.73;;;6.30;;
43676;SDS011;29275;48.800;18.102;2023-04-24T17:13:45;6.90;;;5.15;;
43676;SDS011;29275;48.800;18.102;2023-04-24T17:16:49;6.35;;;4.97;;
43676;SDS011;29275;48.800;18.102;2023-04-24T17:19:52;15.45;;;11.85;;
43676;SDS011;29275;48.800;18.102;2023-04-24T17:22:55;6.75;;;5.50;;
43676;SDS011;29275;48.800;18.102;2023-04-24T17:25:58;8.48;;;7.28;;
43676;SDS011;29275;48.800;18.102;2023-04-24T17:29:01;6.97;;;5.25;;
43676;SDS011;29275;48.800;18.102;2023-04-24T17:32:04;5.55;;;4.43;;
43676;SDS011;29275;48.800;18.102;2023-04-24T17:35:10;39.97;;;24.73;;
43676;SDS011;29275;48.800;18.102;2023-04-24T17:38:13;6.95;;;5.10;;
43676;SDS011;29275;48.800;18.102;2023-04-24T17:41:16;5.45;;;4.38;;
43676;SDS011;29275;48.800;18.102;2023-04-24T17:44:19;9.57;;;5.10;;
43676;SDS011;29275;48.800;18.102;2023-04-24T17:47:23;15.20;;;8.10;;
43676;SDS011;29275;48.800;18.102;2023-04-24T17:50:27;5.40;;;4.25;;
43676;SDS011;29275;48.800;18.102;2023-04-24T17:53:34;5.40;;;4.15;;
43676;SDS011;29275;48.800;18.102;2023-04-24T17:56:36;6.43;;;4.70;;
43676;SDS011;29275;48.800;18.102;2023-04-24T17:59:40;6.03;;;4.57;;
43676;SDS011;29275;48.800;18.102;2023-04-24T18:02:43;7.35;;;4.70;;
43676;SDS011;29275;48.800;18.102;2023-04-24T18:05:47;5.03;;;3.90;;
43676;SDS011;29275;48.800;18.102;2023-04-24T18:08:50;5.78;;;3.78;;
43676;SDS011;29275;48.800;18.102;2023-04-24T18:11:53;4.80;;;3.78;;
43676;SDS011;29275;48.800;18.102;2023-04-24T18:14:58;7.22;;;4.38;;
43676;SDS011;29275;48.800;18.102;2023-04-24T18:18:14;7.32;;;4.50;;